Terminal Aerodrome Forecast
Issued by NWS

Home | Current Version | Previous Version | Text Only | Print | Product List | Glossary On
Versions: 1 2 3 4 5 6 7 8 9 10 11 12 13 14 15 16 17 18 19 20
000
FTUS45 KCYS 201121
TAFLAR
TAF
KLAR 201121Z 2012/2112 30005KT P6SM SCT120
      TEMPO 2012/2015 3SM BR
     FM201500 28014G24KT P6SM SCT120
     FM210100 21008KT P6SM SKC=

USA.gov is the U.S. government's official web portal to all federal, state and local government web resources and services.